sensor_id;sensor_type;location;lat;lon;timestamp;pressure;altitude;pressure_sealevel;temperature;humidity
70815;BME280;58428;49.478;10.986;2023-02-20T00:01:54;99375.16;;;8.51;100.00
70815;BME280;58428;49.478;10.986;2023-02-20T00:04:20;99376.78;;;8.52;100.00
70815;BME280;58428;49.478;10.986;2023-02-20T00:06:46;99375.97;;;8.51;100.00
70815;BME280;58428;49.478;10.986;2023-02-20T00:09:12;99377.06;;;8.50;100.00
70815;BME280;58428;49.478;10.986;2023-02-20T00:11:39;99371.22;;;8.43;100.00
70815;BME280;58428;49.478;10.986;2023-02-20T00:14:05;99378.50;;;8.43;100.00
70815;BME280;58428;49.478;10.986;2023-02-20T00:16:30;99381.19;;;8.43;100.00
70815;BME280;58428;49.478;10.986;2023-02-20T00:18:56;99380.13;;;8.44;100.00
70815;BME280;58428;49.478;10.986;2023-02-20T00:21:21;99384.63;;;8.48;100.00
70815;BME280;58428;49.478;10.986;2023-02-20T00:23:47;99380.31;;;8.47;100.00
70815;BME280;58428;49.478;10.986;2023-02-20T00:26:13;99384.13;;;8.46;100.00
70815;BME280;58428;49.478;10.986;2023-02-20T00:28:39;99376.28;;;8.50;100.00
70815;BME280;58428;49.478;10.986;2023-02-20T00:31:06;99376.56;;;8.48;100.00
70815;BME280;58428;49.478;10.986;2023-02-20T00:33:32;99380.03;;;8.49;100.00
70815;BME280;58428;49.478;10.986;2023-02-20T00:35:59;99387.56;;;8.52;100.00
70815;BME280;58428;49.478;10.986;2023-02-20T00:38:24;99377.56;;;8.52;100.00
70815;BME280;58428;49.478;10.986;2023-02-20T00:40:53;99375.09;;;8.56;100.00
70815;BME280;58428;49.478;10.986;2023-02-20T00:43:18;99384.56;;;8.53;100.00
70815;BME280;58428;49.478;10.986;2023-02-20T00:45:45;99376.78;;;8.52;100.00
70815;BME280;58428;49.478;10.986;2023-02-20T00:48:10;99387.56;;;8.52;100.00
70815;BME280;58428;49.478;10.986;2023-02-20T00:50:36;99380.84;;;8.49;100.00
70815;BME280;58428;49.478;10.986;2023-02-20T00:53:02;99382.75;;;8.49;100.00
70815;BME280;58428;49.478;10.986;2023-02-20T00:55:27;99377.06;;;8.50;100.00
70815;BME280;58428;49.478;10.986;2023-02-20T00:57:53;99380.78;;;8.54;100.00
70815;BME280;58428;49.478;10.986;2023-02-20T01:00:23;99379.41;;;8.57;100.00
70815;BME280;58428;49.478;10.986;2023-02-20T01:02:49;99385.31;;;8.59;100.00
70815;BME280;58428;49.478;10.986;2023-02-20T01:05:15;99380.41;;;8.61;100.00
70815;BME280;58428;49.478;10.986;2023-02-20T01:07:40;99384.50;;;8.58;100.00
70815;BME280;58428;49.478;10.986;2023-02-20T01:10:10;99375.34;;;8.59;100.00
70815;BME280;58428;49.478;10.986;2023-02-20T01:12:36;99380.50;;;8.56;100.00
70815;BME280;58428;49.478;10.986;2023-02-20T01:15:05;99384.50;;;8.58;100.00
70815;BME280;58428;49.478;10.986;2023-02-20T01:17:31;99372.31;;;8.61;100.00
70815;BME280;58428;49.478;10.986;2023-02-20T01:19:58;99379.56;;;8.65;100.00
70815;BME280;58428;49.478;10.986;2023-02-20T01:22:25;99381.16;;;8.66;100.00
70815;BME280;58428;49.478;10.986;2023-02-20T01:24:50;99384.78;;;8.57;100.00
70815;BME280;58428;49.478;10.986;2023-02-20T01:27:16;99385.16;;;8.50;100.00
70815;BME280;58428;49.478;10.986;2023-02-20T01:29:44;99381.16;;;8.48;100.00
70815;BME280;58428;49.478;10.986;2023-02-20T01:32:11;99386.06;;;8.41;100.00
70815;BME280;58428;49.478;10.986;2023-02-20T01:34:37;99378.88;;;8.37;100.00
70815;BME280;58428;49.478;10.986;2023-02-20T01:37:03;99377.56;;;8.34;100.00
70815;BME280;58428;49.478;10.986;2023-02-20T01:39:29;99371.63;;;8.32;100.00
70815;BME280;58428;49.478;10.986;2023-02-20T01:42:04;99383.00;;;8.29;100.00
70815;BME280;58428;49.478;10.986;2023-02-20T01:44:33;99383.16;;;8.14;100.00
70815;BME280;58428;49.478;10.986;2023-02-20T01:47:05;99383.75;;;8.11;100.00
70815;BME280;58428;49.478;10.986;2023-02-20T01:54:39;99363.72;;;8.17;100.00
70815;BME280;58428;49.478;10.986;2023-02-20T01:57:08;99363.25;;;8.10;100.00
70815;BME280;58428;49.478;10.986;2023-02-20T01:59:39;99359.50;;;8.06;100.00
70815;BME280;58428;49.478;10.986;2023-02-20T02:02:06;99357.59;;;8.12;100.00
70815;BME280;58428;49.478;10.986;2023-02-20T02:04:33;99342.44;;;8.16;100.00
70815;BME280;58428;49.478;10.986;2023-02-20T02:07:00;99358.84;;;8.19;100.00
70815;BME280;58428;49.478;10.986;2023-02-20T02:11:54;99346.97;;;8.20;100.00
70815;BME280;58428;49.478;10.986;2023-02-20T02:14:22;99346.81;;;8.12;100.00
70815;BME280;58428;49.478;10.986;2023-02-20T02:16:56;99340.41;;;8.03;100.00
70815;BME280;58428;49.478;10.986;2023-02-20T02:19:58;99351.19;;;8.03;100.00
70815;BME280;58428;49.478;10.986;2023-02-20T02:22:49;99352.00;;;8.04;100.00
70815;BME280;58428;49.478;10.986;2023-02-20T02:28:43;99353.19;;;7.93;100.00
70815;BME280;58428;49.478;10.986;2023-02-20T02:37:18;99355.50;;;8.04;100.00
70815;BME280;58428;49.478;10.986;2023-02-20T02:40:19;99357.41;;;8.04;100.00
70815;BME280;58428;49.478;10.986;2023-02-20T02:48:10;99336.53;;;8.14;100.00
70815;BME280;58428;49.478;10.986;2023-02-20T02:50:40;99339.72;;;8.21;100.00
70815;BME280;58428;49.478;10.986;2023-02-20T02:53:09;99331.03;;;8.24;100.00
70815;BME280;58428;49.478;10.986;2023-02-20T02:55:35;99328.84;;;8.26;100.00
70815;BME280;58428;49.478;10.986;2023-02-20T02:58:02;99328.19;;;8.34;100.00
70815;BME280;58428;49.478;10.986;2023-02-20T03:03:35;99332.19;;;8.18;100.00
70815;BME280;58428;49.478;10.986;2023-02-20T03:06:04;99335.47;;;8.15;100.00
70815;BME280;58428;49.478;10.986;2023-02-20T03:08:50;99329.63;;;8.03;100.00
70815;BME280;58428;49.478;10.986;2023-02-20T03:11:23;99329.97;;;7.97;100.00
70815;BME280;58428;49.478;10.986;2023-02-20T03:13:56;99323.19;;;7.99;100.00
70815;BME280;58428;49.478;10.986;2023-02-20T03:19:25;99330.34;;;7.90;100.00
70815;BME280;58428;49.478;10.986;2023-02-20T03:21:53;99334.34;;;7.93;100.00
70815;BME280;58428;49.478;10.986;2023-02-20T03:24:20;99346.53;;;7.85;100.00
70815;BME280;58428;49.478;10.986;2023-02-20T03:26:49;99336.06;;;7.84;100.00
70815;BME280;58428;49.478;10.986;2023-02-20T03:29:26;99336.88;;;7.84;100.00
70815;BME280;58428;49.478;10.986;2023-02-20T03:32:04;99351.41;;;7.83;100.00
70815;BME280;58428;49.478;10.986;2023-02-20T03:34:52;99360.59;;;7.82;100.00
70815;BME280;58428;49.478;10.986;2023-02-20T03:37:42;99348.69;;;7.88;100.00
70815;BME280;58428;49.478;10.986;2023-02-20T03:40:30;99343.72;;;7.95;100.00
70815;BME280;58428;49.478;10.986;2023-02-20T03:43:19;99336.00;;;7.89;100.00
70815;BME280;58428;49.478;10.986;2023-02-20T03:46:09;99343.81;;;7.90;100.00
70815;BME280;58428;49.478;10.986;2023-02-20T03:48:42;99346.53;;;7.85;100.00
70815;BME280;58428;49.478;10.986;2023-02-20T03:51:11;99342.25;;;7.84;100.00
70815;BME280;58428;49.478;10.986;2023-02-20T03:53:39;99345.22;;;7.83;100.00
70815;BME280;58428;49.478;10.986;2023-02-20T03:56:09;99340.34;;;7.85;100.00
70815;BME280;58428;49.478;10.986;2023-02-20T03:58:38;99345.78;;;7.80;100.00
70815;BME280;58428;49.478;10.986;2023-02-20T04:01:07;99344.94;;;7.84;100.00
70815;BME280;58428;49.478;10.986;2023-02-20T04:03:39;99337.03;;;7.93;100.00
70815;BME280;58428;49.478;10.986;2023-02-20T04:06:07;99343.16;;;7.98;100.00
70815;BME280;58428;49.478;10.986;2023-02-20T04:09:02;99343.09;;;8.03;100.00
70815;BME280;58428;49.478;10.986;2023-02-20T04:11:38;99342.25;;;8.07;100.00
70815;BME280;58428;49.478;10.986;2023-02-20T04:14:07;99344.41;;;8.10;100.00
70815;BME280;58428;49.478;10.986;2023-02-20T04:16:40;99352.00;;;8.04;100.00
70815;BME280;58428;49.478;10.986;2023-02-20T04:19:07;99336.63;;;8.04;100.00
70815;BME280;58428;49.478;10.986;2023-02-20T04:22:00;99336.63;;;8.04;100.00
70815;BME280;58428;49.478;10.986;2023-02-20T04:24:38;99347.41;;;8.04;100.00
70815;BME280;58428;49.478;10.986;2023-02-20T04:27:06;99346.09;;;8.02;100.00
70815;BME280;58428;49.478;10.986;2023-02-20T04:29:33;99349.25;;;8.08;100.00
70815;BME280;58428;49.478;10.986;2023-02-20T04:32:02;99334.44;;;8.06;100.00
70815;BME280;58428;49.478;10.986;2023-02-20T04:34:29;99337.41;;;8.09;100.00
70815;BME280;58428;49.478;10.986;2023-02-20T04:37:07;99328.22;;;8.10;100.00
70815;BME280;58428;49.478;10.986;2023-02-20T04:39:32;99325.84;;;8.04;100.00
70815;BME280;58428;49.478;10.986;2023-02-20T04:41:58;99328.28;;;8.06;100.00
70815;BME280;58428;49.478;10.986;2023-02-20T04:44:24;99323.19;;;7.99;100.00
70815;BME280;58428;49.478;10.986;2023-02-20T04:46:56;99322.19;;;7.95;100.00
70815;BME280;58428;49.478;10.986;2023-02-20T04:49:22;99336.47;;;7.96;100.00
70815;BME280;58428;49.478;10.986;2023-02-20T04:51:47;99336.88;;;7.84;100.00
70815;BME280;58428;49.478;10.986;2023-02-20T04:54:13;99336.38;;;7.77;100.00
70815;BME280;58428;49.478;10.986;2023-02-20T04:56:38;99333.13;;;7.80;100.00
70815;BME280;58428;49.478;10.986;2023-02-20T04:59:05;99340.13;;;7.81;100.00
70815;BME280;58428;49.478;10.986;2023-02-20T05:01:30;99345.22;;;7.83;100.00
70815;BME280;58428;49.478;10.986;2023-02-20T05:03:56;99337.16;;;7.83;100.00
70815;BME280;58428;49.478;10.986;2023-02-20T05:06:21;99342.56;;;7.78;100.00
70815;BME280;58428;49.478;10.986;2023-02-20T05:08:46;99347.69;;;7.79;100.00
70815;BME280;58428;49.478;10.986;2023-02-20T05:11:12;99360.34;;;7.79;100.00
70815;BME280;58428;49.478;10.986;2023-02-20T05:13:38;99355.22;;;7.82;100.00
70815;BME280;58428;49.478;10.986;2023-02-20T05:16:04;99346.31;;;7.82;100.00
70815;BME280;58428;49.478;10.986;2023-02-20T05:18:30;99361.22;;;7.74;100.00
70815;BME280;58428;49.478;10.986;2023-02-20T05:20:56;99360.06;;;7.80;100.00
70815;BME280;58428;49.478;10.986;2023-02-20T05:23:42;99377.91;;;7.76;100.00
70815;BME280;58428;49.478;10.986;2023-02-20T05:26:11;99363.06;;;7.79;100.00
70815;BME280;58428;49.478;10.986;2023-02-20T05:28:38;99367.22;;;7.67;100.00
70815;BME280;58428;49.478;10.986;2023-02-20T05:31:04;99374.03;;;7.59;100.00
70815;BME280;58428;49.478;10.986;2023-02-20T05:33:30;99371.09;;;7.56;100.00
70815;BME280;58428;49.478;10.986;2023-02-20T05:35:57;99386.16;;;7.57;100.00
70815;BME280;58428;49.478;10.986;2023-02-20T05:38:22;99390.56;;;7.48;100.00
70815;BME280;58428;49.478;10.986;2023-02-20T05:40:48;99380.91;;;7.42;100.00
70815;BME280;58428;49.478;10.986;2023-02-20T05:43:15;99382.81;;;7.41;100.00
70815;BME280;58428;49.478;10.986;2023-02-20T05:45:41;99384.13;;;7.44;100.00
70815;BME280;58428;49.478;10.986;2023-02-20T05:48:06;99390.59;;;7.43;100.00
70815;BME280;58428;49.478;10.986;2023-02-20T05:50:32;99394.66;;;7.40;100.00
70815;BME280;58428;49.478;10.986;2023-02-20T05:52:57;99398.38;;;7.44;100.00
70815;BME280;58428;49.478;10.986;2023-02-20T05:55:22;99401.06;;;7.44;100.00
70815;BME280;58428;49.478;10.986;2023-02-20T05:57:48;99406.72;;;7.43;100.00
70815;BME280;58428;49.478;10.986;2023-02-20T06:00:15;99400.22;;;7.49;100.00
70815;BME280;58428;49.478;10.986;2023-02-20T06:02:40;99406.69;;;7.48;100.00
70815;BME280;58428;49.478;10.986;2023-02-20T06:05:06;99407.84;;;7.42;100.00
70815;BME280;58428;49.478;10.986;2023-02-20T06:07:34;99400.00;;;7.45;100.00
70815;BME280;58428;49.478;10.986;2023-02-20T06:09:59;99390.03;;;7.46;100.00
70815;BME280;58428;49.478;10.986;2023-02-20T06:12:25;99396.28;;;7.41;100.00
70815;BME280;58428;49.478;10.986;2023-02-20T06:14:50;99398.09;;;7.46;100.00
70815;BME280;58428;49.478;10.986;2023-02-20T06:17:16;99399.47;;;7.43;100.00
70815;BME280;58428;49.478;10.986;2023-02-20T06:19:41;99394.31;;;7.47;100.00
70815;BME280;58428;49.478;10.986;2023-02-20T06:22:06;99392.44;;;7.47;100.00
70815;BME280;58428;49.478;10.986;2023-02-20T06:24:32;99389.44;;;7.49;100.00
70815;BME280;58428;49.478;10.986;2023-02-20T06:26:57;99387.59;;;7.49;100.00
70815;BME280;58428;49.478;10.986;2023-02-20T06:29:23;99402.09;;;7.53;100.00
70815;BME280;58428;49.478;10.986;2023-02-20T06:31:48;99401.78;;;7.55;100.00
70815;BME280;58428;49.478;10.986;2023-02-20T06:34:15;99400.69;;;7.61;100.00
70815;BME280;58428;49.478;10.986;2023-02-20T06:36:41;99407.09;;;7.65;100.00
70815;BME280;58428;49.478;10.986;2023-02-20T06:39:09;99415.59;;;7.76;100.00
70815;BME280;58428;49.478;10.986;2023-02-20T06:41:35;99418.81;;;7.78;100.00
70815;BME280;58428;49.478;10.986;2023-02-20T06:44:02;99408.84;;;7.79;100.00
70815;BME280;58428;49.478;10.986;2023-02-20T06:46:27;99408.56;;;7.80;100.00
70815;BME280;58428;49.478;10.986;2023-02-20T06:48:57;99407.56;;;7.71;100.00
70815;BME280;58428;49.478;10.986;2023-02-20T06:51:28;99415.88;;;7.75;100.00
70815;BME280;58428;49.478;10.986;2023-02-20T06:53:54;99401.09;;;7.72;100.00
70815;BME280;58428;49.478;10.986;2023-02-20T06:56:22;99404.88;;;7.71;100.00
70815;BME280;58428;49.478;10.986;2023-02-20T06:58:50;99400.53;;;7.75;100.00
70815;BME280;58428;49.478;10.986;2023-02-20T07:01:17;99401.84;;;7.78;100.00
70815;BME280;58428;49.478;10.986;2023-02-20T07:03:46;99409.38;;;7.81;100.00
70815;BME280;58428;49.478;10.986;2023-02-20T07:06:13;99408.25;;;7.82;100.00
70815;BME280;58428;49.478;10.986;2023-02-20T07:08:39;99416.59;;;7.85;100.00
70815;BME280;58428;49.478;10.986;2023-02-20T07:11:04;99396.97;;;7.80;100.00
70815;BME280;58428;49.478;10.986;2023-02-20T07:13:30;99404.31;;;7.74;100.00
70815;BME280;58428;49.478;10.986;2023-02-20T07:15:56;99406.53;;;7.68;100.00
70815;BME280;58428;49.478;10.986;2023-02-20T07:18:22;99403.06;;;7.62;100.00
70815;BME280;58428;49.478;10.986;2023-02-20T07:20:54;99398.03;;;7.56;100.00
70815;BME280;58428;49.478;10.986;2023-02-20T07:23:19;99386.97;;;7.57;100.00
70815;BME280;58428;49.478;10.986;2023-02-20T07:25:47;99383.78;;;7.50;100.00
70815;BME280;58428;49.478;10.986;2023-02-20T07:28:14;99396.44;;;7.50;100.00
70815;BME280;58428;49.478;10.986;2023-02-20T07:30:39;99387.34;;;7.46;100.00
70815;BME280;58428;49.478;10.986;2023-02-20T07:33:05;99379.50;;;7.49;100.00
70815;BME280;58428;49.478;10.986;2023-02-20T07:35:32;99396.63;;;7.58;100.00
70815;BME280;58428;49.478;10.986;2023-02-20T07:37:58;99393.91;;;7.63;100.00
70815;BME280;58428;49.478;10.986;2023-02-20T07:40:23;99389.91;;;7.61;100.00
70815;BME280;58428;49.478;10.986;2023-02-20T07:42:48;99392.59;;;7.61;100.00
70815;BME280;58428;49.478;10.986;2023-02-20T07:45:14;99387.91;;;7.71;100.00
70815;BME280;58428;49.478;10.986;2023-02-20T07:47:39;99403.78;;;7.72;100.00
70815;BME280;58428;49.478;10.986;2023-02-20T07:50:05;99403.19;;;7.80;100.00
70815;BME280;58428;49.478;10.986;2023-02-20T07:52:30;99411.69;;;7.92;100.00
70815;BME280;58428;49.478;10.986;2023-02-20T07:54:56;99405.69;;;7.95;100.00
70815;BME280;58428;49.478;10.986;2023-02-20T07:57:21;99397.75;;;8.08;100.00
70815;BME280;58428;49.478;10.986;2023-02-20T07:59:47;99389.69;;;8.32;100.00
70815;BME280;58428;49.478;10.986;2023-02-20T08:02:12;99372.09;;;8.57;100.00
70815;BME280;58428;49.478;10.986;2023-02-20T08:04:38;99355.16;;;8.75;100.00
70815;BME280;58428;49.478;10.986;2023-02-20T08:07:03;99363.09;;;8.85;100.00
70815;BME280;58428;49.478;10.986;2023-02-20T08:09:31;99371.94;;;8.90;100.00
70815;BME280;58428;49.478;10.986;2023-02-20T08:11:57;99382.72;;;8.90;100.00
70815;BME280;58428;49.478;10.986;2023-02-20T08:14:23;99374.81;;;8.94;100.00
70815;BME280;58428;49.478;10.986;2023-02-20T08:16:49;99357.63;;;8.90;100.00
70815;BME280;58428;49.478;10.986;2023-02-20T08:19:15;99365.50;;;8.86;100.00
70815;BME280;58428;49.478;10.986;2023-02-20T08:21:41;99364.28;;;8.79;100.00
70815;BME280;58428;49.478;10.986;2023-02-20T08:24:07;99369.94;;;8.78;100.00
70815;BME280;58428;49.478;10.986;2023-02-20T08:26:32;99372.84;;;8.63;100.00
70815;BME280;58428;49.478;10.986;2023-02-20T08:29:01;99391.56;;;8.54;100.00
70815;BME280;58428;49.478;10.986;2023-02-20T08:31:27;99380.84;;;8.49;100.00
70815;BME280;58428;49.478;10.986;2023-02-20T08:33:57;99370.69;;;8.42;100.00
70815;BME280;58428;49.478;10.986;2023-02-20T08:36:24;99365.91;;;8.39;100.00
70815;BME280;58428;49.478;10.986;2023-02-20T08:38:50;99368.31;;;8.40;100.00
70815;BME280;58428;49.478;10.986;2023-02-20T08:41:15;99378.88;;;8.37;100.00
70815;BME280;58428;49.478;10.986;2023-02-20T08:43:42;99376.09;;;8.42;100.00
70815;BME280;58428;49.478;10.986;2023-02-20T08:46:11;99364.38;;;8.51;100.00
70815;BME280;58428;49.478;10.986;2023-02-20T08:48:36;99357.13;;;8.70;100.00
70815;BME280;58428;49.478;10.986;2023-02-20T08:51:03;99346.91;;;8.85;100.00
70815;BME280;58428;49.478;10.986;2023-02-20T08:53:31;99355.28;;;8.83;100.00
70815;BME280;58428;49.478;10.986;2023-02-20T08:55:57;99343.47;;;8.80;100.00
70815;BME280;58428;49.478;10.986;2023-02-20T08:58:24;99348.50;;;8.86;100.00
70815;BME280;58428;49.478;10.986;2023-02-20T09:00:50;99337.41;;;8.87;100.00
70815;BME280;58428;49.478;10.986;2023-02-20T09:03:17;99349.75;;;8.93;100.00
70815;BME280;58428;49.478;10.986;2023-02-20T09:05:43;99340.69;;;9.03;100.00
70815;BME280;58428;49.478;10.986;2023-02-20T09:08:08;99342.72;;;9.11;100.00
70815;BME280;58428;49.478;10.986;2023-02-20T09:10:34;99333.88;;;9.23;100.00
70815;BME280;58428;49.478;10.986;2023-02-20T09:13:01;99331.22;;;9.37;100.00
70815;BME280;58428;49.478;10.986;2023-02-20T09:15:27;99336.25;;;9.43;100.00
70815;BME280;58428;49.478;10.986;2023-02-20T09:17:53;99330.38;;;9.54;100.00
70815;BME280;58428;49.478;10.986;2023-02-20T09:20:21;99322.78;;;9.56;100.00
70815;BME280;58428;49.478;10.986;2023-02-20T09:22:49;99320.78;;;9.62;100.00
70815;BME280;58428;49.478;10.986;2023-02-20T09:25:15;99316.78;;;9.73;100.00
70815;BME280;58428;49.478;10.986;2023-02-20T09:27:41;99330.59;;;9.85;100.00
70815;BME280;58428;49.478;10.986;2023-02-20T09:30:09;99319.53;;;9.99;100.00
70815;BME280;58428;49.478;10.986;2023-02-20T09:32:37;99312.84;;;10.10;100.00
70815;BME280;58428;49.478;10.986;2023-02-20T09:35:04;99317.44;;;10.10;100.00
70815;BME280;58428;49.478;10.986;2023-02-20T09:37:31;99297.63;;;10.01;100.00
70815;BME280;58428;49.478;10.986;2023-02-20T09:39:56;99305.03;;;10.09;100.00
70815;BME280;58428;49.478;10.986;2023-02-20T09:45:20;99299.25;;;10.50;100.00
70815;BME280;58428;49.478;10.986;2023-02-20T09:53:29;99275.78;;;10.94;100.00
70815;BME280;58428;49.478;10.986;2023-02-20T09:55:59;99283.03;;;11.07;100.00
70815;BME280;58428;49.478;10.986;2023-02-20T09:58:56;99270.34;;;10.94;100.00
70815;BME280;58428;49.478;10.986;2023-02-20T10:01:24;99268.44;;;10.95;100.00
70815;BME280;58428;49.478;10.986;2023-02-20T10:04:03;99266.97;;;11.10;100.00
70815;BME280;58428;49.478;10.986;2023-02-20T10:06:32;99258.38;;;11.38;100.00
70815;BME280;58428;49.478;10.986;2023-02-20T10:09:02;99265.00;;;11.46;100.00
70815;BME280;58428;49.478;10.986;2023-02-20T10:14:40;99252.31;;;11.41;100.00
70815;BME280;58428;49.478;10.986;2023-02-20T10:19:55;99244.66;;;11.35;100.00
70815;BME280;58428;49.478;10.986;2023-02-20T10:22:33;99239.41;;;11.38;100.00
70815;BME280;58428;49.478;10.986;2023-02-20T10:28:11;99247.16;;;11.83;100.00
70815;BME280;58428;49.478;10.986;2023-02-20T10:35:46;99230.22;;;11.86;100.00
70815;BME280;58428;49.478;10.986;2023-02-20T10:38:14;99230.84;;;11.75;100.00
70815;BME280;58428;49.478;10.986;2023-02-20T10:40:48;99219.53;;;11.81;100.00
70815;BME280;58428;49.478;10.986;2023-02-20T10:43:50;99220.38;;;11.90;100.00
70815;BME280;58428;49.478;10.986;2023-02-20T10:46:26;99215.63;;;12.13;100.00
70815;BME280;58428;49.478;10.986;2023-02-20T10:48:56;99214.06;;;12.20;100.00
70815;BME280;58428;49.478;10.986;2023-02-20T10:51:29;99212.13;;;12.12;100.00
70815;BME280;58428;49.478;10.986;2023-02-20T10:54:12;99204.59;;;12.01;100.00
70815;BME280;58428;49.478;10.986;2023-02-20T10:56:54;99199.84;;;12.06;100.00
70815;BME280;58428;49.478;10.986;2023-02-20T10:59:28;99201.59;;;12.11;100.00
70815;BME280;58428;49.478;10.986;2023-02-20T11:01:57;99193.09;;;12.04;100.00
70815;BME280;58428;49.478;10.986;2023-02-20T11:04:29;99192.47;;;11.98;100.00
70815;BME280;58428;49.478;10.986;2023-02-20T11:07:00;99193.28;;;11.99;100.00
70815;BME280;58428;49.478;10.986;2023-02-20T11:09:27;99185.44;;;12.06;100.00
70815;BME280;58428;49.478;10.986;2023-02-20T11:11:53;99181.16;;;11.96;100.00
70815;BME280;58428;49.478;10.986;2023-02-20T11:14:29;99166.34;;;12.19;100.00
70815;BME280;58428;49.478;10.986;2023-02-20T11:17:03;99164.91;;;12.21;100.00
70815;BME280;58428;49.478;10.986;2023-02-20T11:19:49;99167.94;;;12.45;100.00
70815;BME280;58428;49.478;10.986;2023-02-20T11:22:17;99155.78;;;12.76;100.00
70815;BME280;58428;49.478;10.986;2023-02-20T11:24:45;99143.66;;;12.82;100.00
70815;BME280;58428;49.478;10.986;2023-02-20T11:27:16;99136.41;;;13.11;100.00
70815;BME280;58428;49.478;10.986;2023-02-20T11:30:00;99128.72;;;13.13;100.00
70815;BME280;58428;49.478;10.986;2023-02-20T11:32:45;99120.25;;;13.15;100.00
70815;BME280;58428;49.478;10.986;2023-02-20T11:37:48;99124.03;;;13.30;100.00
70815;BME280;58428;49.478;10.986;2023-02-20T11:40:26;99106.44;;;13.57;100.00
70815;BME280;58428;49.478;10.986;2023-02-20T11:42:52;99104.66;;;13.60;100.00
70815;BME280;58428;49.478;10.986;2023-02-20T11:48:05;99100.75;;;13.50;100.00
70815;BME280;58428;49.478;10.986;2023-02-20T11:50:47;99096.31;;;13.45;100.00
70815;BME280;58428;49.478;10.986;2023-02-20T11:53:30;99102.00;;;13.52;100.00
70815;BME280;58428;49.478;10.986;2023-02-20T11:56:18;99105.97;;;13.55;100.00
70815;BME280;58428;49.478;10.986;2023-02-20T11:58:46;99107.53;;;13.35;100.00
70815;BME280;58428;49.478;10.986;2023-02-20T12:03:55;99100.34;;;13.31;100.00
70815;BME280;58428;49.478;10.986;2023-02-20T12:06:53;99098.56;;;13.43;100.00
70815;BME280;58428;49.478;10.986;2023-02-20T12:09:21;99093.13;;;13.43;100.00
70815;BME280;58428;49.478;10.986;2023-02-20T12:11:54;99080.38;;;13.27;100.00
70815;BME280;58428;49.478;10.986;2023-02-20T12:14:21;99081.63;;;13.38;100.00
70815;BME280;58428;49.478;10.986;2023-02-20T12:20:19;99052.53;;;13.59;100.00
70815;BME280;58428;49.478;10.986;2023-02-20T12:40:36;99025.44;;;13.91;100.00
70815;BME280;58428;49.478;10.986;2023-02-20T12:46:13;99016.75;;;13.77;100.00
70815;BME280;58428;49.478;10.986;2023-02-20T12:49:14;99011.91;;;13.62;100.00
70815;BME280;58428;49.478;10.986;2023-02-20T12:57:43;99002.94;;;13.82;100.00
70815;BME280;58428;49.478;10.986;2023-02-20T13:00:35;98996.16;;;13.88;100.00
70815;BME280;58428;49.478;10.986;2023-02-20T13:06:17;98999.03;;;13.91;100.00
70815;BME280;58428;49.478;10.986;2023-02-20T13:11:44;99001.81;;;13.62;100.00
70815;BME280;58428;49.478;10.986;2023-02-20T13:14:19;98999.44;;;13.61;100.00
70815;BME280;58428;49.478;10.986;2023-02-20T13:16:58;98996.53;;;13.66;100.00
70815;BME280;58428;49.478;10.986;2023-02-20T13:19:44;98985.19;;;13.64;100.00
70815;BME280;58428;49.478;10.986;2023-02-20T13:22:15;98997.81;;;13.68;100.00
70815;BME280;58428;49.478;10.986;2023-02-20T13:24:42;98982.72;;;13.71;100.00
70815;BME280;58428;49.478;10.986;2023-02-20T13:27:09;98988.41;;;13.78;100.00
70815;BME280;58428;49.478;10.986;2023-02-20T13:29:58;98984.84;;;13.86;100.00
70815;BME280;58428;49.478;10.986;2023-02-20T13:32:28;98975.81;;;13.94;100.00
70815;BME280;58428;49.478;10.986;2023-02-20T13:38:19;98972.38;;;13.85;100.00
70815;BME280;58428;49.478;10.986;2023-02-20T13:43:36;98975.19;;;13.76;100.00
70815;BME280;58428;49.478;10.986;2023-02-20T13:46:09;98963.94;;;13.78;100.00
70815;BME280;58428;49.478;10.986;2023-02-20T13:54:13;98952.88;;;13.83;100.00
70815;BME280;58428;49.478;10.986;2023-02-20T13:56:44;98956.94;;;13.77;100.00
70815;BME280;58428;49.478;10.986;2023-02-20T13:59:13;98947.78;;;13.61;100.00
70815;BME280;58428;49.478;10.986;2023-02-20T14:02:02;98948.56;;;13.61;100.00
70815;BME280;58428;49.478;10.986;2023-02-20T14:04:30;98946.00;;;13.65;100.00
70815;BME280;58428;49.478;10.986;2023-02-20T14:06:56;98939.13;;;13.79;100.00
70815;BME280;58428;49.478;10.986;2023-02-20T14:09:23;98935.09;;;13.85;100.00
70815;BME280;58428;49.478;10.986;2023-02-20T14:11:50;98929.59;;;13.94;100.00
70815;BME280;58428;49.478;10.986;2023-02-20T14:14:33;98926.91;;;13.85;100.00
70815;BME280;58428;49.478;10.986;2023-02-20T14:17:14;98921.34;;;13.82;100.00
70815;BME280;58428;49.478;10.986;2023-02-20T14:19:42;98924.19;;;13.85;100.00
70815;BME280;58428;49.478;10.986;2023-02-20T14:22:23;98919.91;;;13.84;100.00
70815;BME280;58428;49.478;10.986;2023-02-20T14:27:38;98911.09;;;13.67;100.00
70815;BME280;58428;49.478;10.986;2023-02-20T14:30:11;98906.41;;;13.56;100.00
70815;BME280;58428;49.478;10.986;2023-02-20T14:32:41;98911.56;;;13.49;100.00
70815;BME280;58428;49.478;10.986;2023-02-20T14:38:19;98902.22;;;13.58;100.00
70815;BME280;58428;49.478;10.986;2023-02-20T14:40:48;98903.81;;;13.59;100.00
70815;BME280;58428;49.478;10.986;2023-02-20T14:43:21;98894.84;;;13.59;100.00
70815;BME280;58428;49.478;10.986;2023-02-20T14:46:02;98894.53;;;13.60;100.00
70815;BME280;58428;49.478;10.986;2023-02-20T14:48:33;98892.28;;;13.62;100.00
70815;BME280;58428;49.478;10.986;2023-02-20T14:51:22;98889.22;;;13.63;100.00
70815;BME280;58428;49.478;10.986;2023-02-20T14:54:24;98893.06;;;13.62;100.00
70815;BME280;58428;49.478;10.986;2023-02-20T14:56:54;98892.41;;;13.65;100.00